sensor_id;sensor_type;location;lat;lon;timestamp;pressure;altitude;pressure_sealevel;temperature;humidity
69624;BME280;56843;52.020;5.670;2023-02-10T00:01:20;103329.53;;;3.76;68.48
69624;BME280;56843;52.020;5.670;2023-02-10T00:02:50;103330.53;;;3.74;68.54
69624;BME280;56843;52.020;5.670;2023-02-10T00:04:21;103324.25;;;3.76;68.48
69624;BME280;56843;52.020;5.670;2023-02-10T00:05:51;103334.00;;;3.75;68.57
69624;BME280;56843;52.020;5.670;2023-02-10T00:07:22;103335.63;;;3.76;68.64
69624;BME280;56843;52.020;5.670;2023-02-10T00:08:55;103336.41;;;3.77;68.59
69624;BME280;56843;52.020;5.670;2023-02-10T00:10:26;103333.00;;;3.76;68.59
69624;BME280;56843;52.020;5.670;2023-02-10T00:11:56;103336.41;;;3.77;68.50
69624;BME280;56843;52.020;5.670;2023-02-10T00:13:27;103322.63;;;3.74;68.76
69624;BME280;56843;52.020;5.670;2023-02-10T00:14:58;103330.34;;;3.76;68.52
69624;BME280;56843;52.020;5.670;2023-02-10T00:16:29;103331.13;;;3.77;68.53
69624;BME280;56843;52.020;5.670;2023-02-10T00:17:59;103331.94;;;3.77;68.64
69624;BME280;56843;52.020;5.670;2023-02-10T00:19:30;103331.94;;;3.77;68.61
69624;BME280;56843;52.020;5.670;2023-02-10T00:21:09;103337.25;;;3.77;68.82
69624;BME280;56843;52.020;5.670;2023-02-10T00:22:40;103340.09;;;3.76;68.75
69624;BME280;56843;52.020;5.670;2023-02-10T00:24:10;103336.41;;;3.77;68.77
69624;BME280;56843;52.020;5.670;2023-02-10T00:25:41;103329.53;;;3.76;68.93
69624;BME280;56843;52.020;5.670;2023-02-10T00:27:11;103338.06;;;3.78;68.87
69624;BME280;56843;52.020;5.670;2023-02-10T00:28:42;103338.06;;;3.78;68.99
69624;BME280;56843;52.020;5.670;2023-02-10T00:30:12;103338.06;;;3.78;68.70
69624;BME280;56843;52.020;5.670;2023-02-10T00:31:43;103335.41;;;3.78;68.87
69624;BME280;56843;52.020;5.670;2023-02-10T00:33:16;103343.56;;;3.76;69.13
69624;BME280;56843;52.020;5.670;2023-02-10T00:34:48;103342.75;;;3.76;68.96
69624;BME280;56843;52.020;5.670;2023-02-10T00:36:19;103341.72;;;3.77;69.09
69624;BME280;56843;52.020;5.670;2023-02-10T00:37:51;103343.34;;;3.78;69.21
69624;BME280;56843;52.020;5.670;2023-02-10T00:39:23;103341.16;;;3.68;69.07
69624;BME280;56843;52.020;5.670;2023-02-10T00:40:53;103337.94;;;3.66;69.14
69624;BME280;56843;52.020;5.670;2023-02-10T00:42:24;103345.84;;;3.66;68.99
69624;BME280;56843;52.020;5.670;2023-02-10T00:43:54;103336.31;;;3.65;69.26
69624;BME280;56843;52.020;5.670;2023-02-10T00:45:25;103344.84;;;3.67;69.22
69624;BME280;56843;52.020;5.670;2023-02-10T00:46:55;103343.81;;;3.68;69.12
69624;BME280;56843;52.020;5.670;2023-02-10T00:48:26;103344.84;;;3.67;69.10
69624;BME280;56843;52.020;5.670;2023-02-10T00:49:56;103343.63;;;3.69;69.29
69624;BME280;56843;52.020;5.670;2023-02-10T00:51:27;103348.09;;;3.69;69.18
69624;BME280;56843;52.020;5.670;2023-02-10T00:52:57;103343.81;;;3.68;69.55
69624;BME280;56843;52.020;5.670;2023-02-10T00:54:28;103344.63;;;3.68;69.33
69624;BME280;56843;52.020;5.670;2023-02-10T00:55:58;103346.44;;;3.68;69.20
69624;BME280;56843;52.020;5.670;2023-02-10T00:57:29;103345.84;;;3.66;69.18
69624;BME280;56843;52.020;5.670;2023-02-10T00:58:59;103348.31;;;3.67;69.35
69624;BME280;56843;52.020;5.670;2023-02-10T01:00:29;103352.78;;;3.67;69.66
69624;BME280;56843;52.020;5.670;2023-02-10T01:02:00;103355.41;;;3.67;69.36
69624;BME280;56843;52.020;5.670;2023-02-10T01:03:30;103352.78;;;3.67;69.38
69624;BME280;56843;52.020;5.670;2023-02-10T01:05:01;103356.44;;;3.66;69.39
69624;BME280;56843;52.020;5.670;2023-02-10T01:06:33;103357.25;;;3.66;69.34
69624;BME280;56843;52.020;5.670;2023-02-10T01:08:04;103354.81;;;3.65;69.40
69624;BME280;56843;52.020;5.670;2023-02-10T01:09:34;103361.34;;;3.62;69.25
69624;BME280;56843;52.020;5.670;2023-02-10T01:11:07;103358.31;;;3.59;69.47
69624;BME280;56843;52.020;5.670;2023-02-10T01:12:38;103356.00;;;3.69;69.55
69624;BME280;56843;52.020;5.670;2023-02-10T01:14:09;103364.78;;;3.94;69.27
69624;BME280;56843;52.020;5.670;2023-02-10T01:15:44;103362.91;;;4.19;68.99
69624;BME280;56843;52.020;5.670;2023-02-10T01:17:15;103362.34;;;4.42;68.66
69624;BME280;56843;52.020;5.670;2023-02-10T01:18:47;103369.19;;;4.68;68.23
69624;BME280;56843;52.020;5.670;2023-02-10T01:20:18;103360.59;;;4.90;67.66
69624;BME280;56843;52.020;5.670;2023-02-10T01:21:49;103368.06;;;5.11;67.79
69624;BME280;56843;52.020;5.670;2023-02-10T01:23:19;103362.72;;;5.30;67.14
69624;BME280;56843;52.020;5.670;2023-02-10T01:24:50;103369.81;;;5.47;66.92
69624;BME280;56843;52.020;5.670;2023-02-10T01:26:20;103370.00;;;5.64;66.71
69624;BME280;56843;52.020;5.670;2023-02-10T01:27:51;103363.44;;;5.78;66.45
69624;BME280;56843;52.020;5.670;2023-02-10T01:29:21;103362.78;;;5.94;66.37
69624;BME280;56843;52.020;5.670;2023-02-10T01:30:51;103364.44;;;6.07;66.21
69624;BME280;56843;52.020;5.670;2023-02-10T01:32:22;103357.84;;;6.21;66.10
69624;BME280;56843;52.020;5.670;2023-02-10T01:33:53;103360.75;;;6.31;65.86
69624;BME280;56843;52.020;5.670;2023-02-10T01:35:24;103358.63;;;6.44;65.86
69624;BME280;56843;52.020;5.670;2023-02-10T01:36:56;103365.56;;;6.57;65.86
69624;BME280;56843;52.020;5.670;2023-02-10T01:38:27;103355.13;;;6.67;65.69
69624;BME280;56843;52.020;5.670;2023-02-10T01:39:58;103354.59;;;6.77;65.54
69624;BME280;56843;52.020;5.670;2023-02-10T01:41:30;103351.56;;;6.85;65.46
69624;BME280;56843;52.020;5.670;2023-02-10T01:43:01;103350.38;;;6.92;65.41
69624;BME280;56843;52.020;5.670;2023-02-10T01:46:01;103347.22;;;7.07;65.53
69624;BME280;56843;52.020;5.670;2023-02-10T01:47:32;103344.97;;;7.15;65.45
69624;BME280;56843;52.020;5.670;2023-02-10T01:49:06;103350.16;;;7.22;65.37
69624;BME280;56843;52.020;5.670;2023-02-10T01:50:51;103355.31;;;7.28;65.46
69624;BME280;56843;52.020;5.670;2023-02-10T01:52:23;103349.53;;;7.31;65.40
69624;BME280;56843;52.020;5.670;2023-02-10T01:53:57;103349.13;;;7.39;65.46
69624;BME280;56843;52.020;5.670;2023-02-10T01:55:31;103346.56;;;7.45;65.35
69624;BME280;56843;52.020;5.670;2023-02-10T01:57:05;103353.84;;;7.49;65.44
69624;BME280;56843;52.020;5.670;2023-02-10T01:58:36;103359.25;;;7.54;65.51
69624;BME280;56843;52.020;5.670;2023-02-10T02:00:08;103359.56;;;7.58;65.45
69624;BME280;56843;52.020;5.670;2023-02-10T02:03:22;103369.59;;;7.67;65.73
69624;BME280;56843;52.020;5.670;2023-02-10T02:04:58;103367.81;;;7.73;65.49
69624;BME280;56843;52.020;5.670;2023-02-10T02:06:29;103371.63;;;7.77;65.53
69624;BME280;56843;52.020;5.670;2023-02-10T02:08:07;103378.88;;;7.81;65.46
69624;BME280;56843;52.020;5.670;2023-02-10T02:09:40;103371.47;;;7.83;65.56
69624;BME280;56843;52.020;5.670;2023-02-10T02:13:09;103370.47;;;7.89;65.59
69624;BME280;56843;52.020;5.670;2023-02-10T02:14:48;103370.78;;;7.93;65.62
69624;BME280;56843;52.020;5.670;2023-02-10T02:18:32;103377.03;;;7.98;65.53
69624;BME280;56843;52.020;5.670;2023-02-10T02:29:27;103373.22;;;8.11;65.46
69624;BME280;56843;52.020;5.670;2023-02-10T02:32:44;103364.25;;;8.17;65.53
69624;BME280;56843;52.020;5.670;2023-02-10T02:34:24;103366.44;;;8.20;65.53
69624;BME280;56843;52.020;5.670;2023-02-10T02:36:06;103369.66;;;8.22;65.52
69624;BME280;56843;52.020;5.670;2023-02-10T02:37:42;103372.06;;;8.24;65.46
69624;BME280;56843;52.020;5.670;2023-02-10T02:39:13;103371.84;;;8.25;65.25
69624;BME280;56843;52.020;5.670;2023-02-10T02:40:44;103363.59;;;8.27;65.51
69624;BME280;56843;52.020;5.670;2023-02-10T02:42:18;103372.97;;;8.29;65.38
69624;BME280;56843;52.020;5.670;2023-02-10T02:43:50;103364.72;;;8.31;65.58
69624;BME280;56843;52.020;5.670;2023-02-10T02:45:26;103366.91;;;8.34;65.44
69624;BME280;56843;52.020;5.670;2023-02-10T02:52:14;103369.31;;;8.35;65.62
69624;BME280;56843;52.020;5.670;2023-02-10T02:53:58;103376.81;;;8.38;65.56
69624;BME280;56843;52.020;5.670;2023-02-10T03:00:33;103379.78;;;8.42;65.36
69624;BME280;56843;52.020;5.670;2023-02-10T03:02:07;103377.69;;;8.44;65.34
69624;BME280;56843;52.020;5.670;2023-02-10T03:03:41;103391.00;;;8.44;65.50
69624;BME280;56843;52.020;5.670;2023-02-10T03:05:23;103386.00;;;8.47;65.34
69624;BME280;56843;52.020;5.670;2023-02-10T03:06:57;103385.19;;;8.47;65.59
69624;BME280;56843;52.020;5.670;2023-02-10T03:08:30;103385.75;;;8.49;65.54
69624;BME280;56843;52.020;5.670;2023-02-10T03:10:03;103388.97;;;8.51;65.32
69624;BME280;56843;52.020;5.670;2023-02-10T03:11:33;103387.38;;;8.50;65.55
69624;BME280;56843;52.020;5.670;2023-02-10T03:13:04;103385.28;;;8.52;65.39
69624;BME280;56843;52.020;5.670;2023-02-10T03:14:34;103396.47;;;8.54;65.46
69624;BME280;56843;52.020;5.670;2023-02-10T03:16:05;103386.66;;;8.54;65.45
69624;BME280;56843;52.020;5.670;2023-02-10T03:17:36;103392.75;;;8.55;65.42
69624;BME280;56843;52.020;5.670;2023-02-10T03:19:06;103383.16;;;8.54;65.46
69624;BME280;56843;52.020;5.670;2023-02-10T03:20:38;103386.38;;;8.56;65.44
69624;BME280;56843;52.020;5.670;2023-02-10T03:22:09;103380.25;;;8.55;65.53
69624;BME280;56843;52.020;5.670;2023-02-10T03:23:39;103377.59;;;8.55;65.53
69624;BME280;56843;52.020;5.670;2023-02-10T03:25:10;103380.00;;;8.57;65.44
69624;BME280;56843;52.020;5.670;2023-02-10T03:26:40;103382.66;;;8.57;65.42
69624;BME280;56843;52.020;5.670;2023-02-10T03:28:11;103380.81;;;8.57;65.68
69624;BME280;56843;52.020;5.670;2023-02-10T03:29:42;103380.00;;;8.57;65.50
69624;BME280;56843;52.020;5.670;2023-02-10T03:31:13;103381.88;;;8.56;65.49
69624;BME280;56843;52.020;5.670;2023-02-10T03:32:43;103382.66;;;8.57;65.55
69624;BME280;56843;52.020;5.670;2023-02-10T03:34:14;103382.66;;;8.57;65.62
69624;BME280;56843;52.020;5.670;2023-02-10T03:35:45;103386.13;;;8.57;65.46
69624;BME280;56843;52.020;5.670;2023-02-10T03:37:15;103386.94;;;8.58;65.47
69624;BME280;56843;52.020;5.670;2023-02-10T03:38:46;103381.06;;;8.56;65.60
69624;BME280;56843;52.020;5.670;2023-02-10T03:40:17;103385.91;;;8.59;65.56
69624;BME280;56843;52.020;5.670;2023-02-10T03:41:47;103385.91;;;8.59;65.60
69624;BME280;56843;52.020;5.670;2023-02-10T03:43:19;103395.50;;;8.60;65.54
69624;BME280;56843;52.020;5.670;2023-02-10T03:44:49;103394.50;;;8.61;65.40
69624;BME280;56843;52.020;5.670;2023-02-10T03:46:20;103396.31;;;8.60;65.48
69624;BME280;56843;52.020;5.670;2023-02-10T03:47:51;103398.97;;;8.60;65.41
69624;BME280;56843;52.020;5.670;2023-02-10T03:49:21;103386.50;;;8.61;65.64
69624;BME280;56843;52.020;5.670;2023-02-10T03:50:52;103395.28;;;8.61;65.54
69624;BME280;56843;52.020;5.670;2023-02-10T03:52:23;103381.94;;;8.61;65.57
69624;BME280;56843;52.020;5.670;2023-02-10T03:53:53;103389.16;;;8.61;65.50
69624;BME280;56843;52.020;5.670;2023-02-10T03:55:24;103395.50;;;8.60;65.29
69624;BME280;56843;52.020;5.670;2023-02-10T03:56:55;103390.75;;;8.62;65.62
69624;BME280;56843;52.020;5.670;2023-02-10T03:58:26;103382.75;;;8.62;65.49
69624;BME280;56843;52.020;5.670;2023-02-10T03:59:56;103377.44;;;8.62;65.55
69624;BME280;56843;52.020;5.670;2023-02-10T04:01:26;103384.38;;;8.63;65.59
69624;BME280;56843;52.020;5.670;2023-02-10T04:02:57;103387.28;;;8.61;65.54
69624;BME280;56843;52.020;5.670;2023-02-10T04:04:28;103392.38;;;8.63;65.60
69624;BME280;56843;52.020;5.670;2023-02-10T04:05:59;103386.00;;;8.64;65.63
69624;BME280;56843;52.020;5.670;2023-02-10T04:07:29;103395.81;;;8.63;65.78
69624;BME280;56843;52.020;5.670;2023-02-10T04:09:00;103391.31;;;8.64;65.62
69624;BME280;56843;52.020;5.670;2023-02-10T04:10:31;103403.59;;;8.65;65.75
69624;BME280;56843;52.020;5.670;2023-02-10T04:12:01;103394.53;;;8.66;65.77
69624;BME280;56843;52.020;5.670;2023-02-10T04:13:32;103402.31;;;8.67;65.80
69624;BME280;56843;52.020;5.670;2023-02-10T04:15:04;103397.19;;;8.66;65.68
69624;BME280;56843;52.020;5.670;2023-02-10T04:16:35;103400.41;;;8.68;65.75
69624;BME280;56843;52.020;5.670;2023-02-10T04:18:05;103405.75;;;8.68;65.91
69624;BME280;56843;52.020;5.670;2023-02-10T04:19:36;103399.38;;;8.69;65.75
69624;BME280;56843;52.020;5.670;2023-02-10T04:21:08;103394.06;;;8.69;65.85
69624;BME280;56843;52.020;5.670;2023-02-10T04:22:39;103402.31;;;8.67;65.76
69624;BME280;56843;52.020;5.670;2023-02-10T04:24:09;103404.72;;;8.69;65.77
69624;BME280;56843;52.020;5.670;2023-02-10T04:25:40;103398.34;;;8.70;65.79
69624;BME280;56843;52.020;5.670;2023-02-10T04:27:10;103399.94;;;8.71;65.79
69624;BME280;56843;52.020;5.670;2023-02-10T04:28:41;103398.34;;;8.70;65.85
69624;BME280;56843;52.020;5.670;2023-02-10T04:30:11;103384.78;;;8.71;66.09
69624;BME280;56843;52.020;5.670;2023-02-10T04:31:42;103395.16;;;8.73;65.87
69624;BME280;56843;52.020;5.670;2023-02-10T04:33:12;103395.97;;;8.73;65.86
69624;BME280;56843;52.020;5.670;2023-02-10T04:34:43;103397.56;;;8.74;65.94
69624;BME280;56843;52.020;5.670;2023-02-10T04:36:13;103405.81;;;8.73;65.91
69624;BME280;56843;52.020;5.670;2023-02-10T04:37:44;103404.78;;;8.74;65.81
69624;BME280;56843;52.020;5.670;2023-02-10T04:39:14;103400.50;;;8.73;65.86
69624;BME280;56843;52.020;5.670;2023-02-10T04:40:45;103411.97;;;8.73;65.83
69624;BME280;56843;52.020;5.670;2023-02-10T04:42:16;103411.97;;;8.73;65.78
69624;BME280;56843;52.020;5.670;2023-02-10T04:43:46;103405.81;;;8.73;65.88
69624;BME280;56843;52.020;5.670;2023-02-10T04:45:17;103408.22;;;8.74;65.97
69624;BME280;56843;52.020;5.670;2023-02-10T04:46:47;103407.44;;;8.74;65.99
69624;BME280;56843;52.020;5.670;2023-02-10T04:48:20;103414.63;;;8.73;65.94
69624;BME280;56843;52.020;5.670;2023-02-10T04:49:51;103414.38;;;8.75;65.97
69624;BME280;56843;52.020;5.670;2023-02-10T04:51:21;103414.38;;;8.75;65.76
69624;BME280;56843;52.020;5.670;2023-02-10T04:52:52;103419.69;;;8.75;65.83
69624;BME280;56843;52.020;5.670;2023-02-10T04:54:23;103425.03;;;8.75;65.97
69624;BME280;56843;52.020;5.670;2023-02-10T04:55:53;103424.81;;;8.76;65.91
69624;BME280;56843;52.020;5.670;2023-02-10T04:57:24;103427.47;;;8.76;65.88
69624;BME280;56843;52.020;5.670;2023-02-10T04:58:54;103428.50;;;8.75;65.94
69624;BME280;56843;52.020;5.670;2023-02-10T05:00:25;103424.22;;;8.74;65.98
69624;BME280;56843;52.020;5.670;2023-02-10T05:01:55;103419.69;;;8.75;65.94
69624;BME280;56843;52.020;5.670;2023-02-10T05:03:26;103422.38;;;8.75;65.99
69624;BME280;56843;52.020;5.670;2023-02-10T05:04:57;103417.84;;;8.75;66.13
69624;BME280;56843;52.020;5.670;2023-02-10T05:06:28;103422.13;;;8.76;65.86
69624;BME280;56843;52.020;5.670;2023-02-10T05:07:58;103412.53;;;8.75;65.97
69624;BME280;56843;52.020;5.670;2023-02-10T05:09:29;103417.84;;;8.75;66.15
69624;BME280;56843;52.020;5.670;2023-02-10T05:10:59;103413.34;;;8.76;66.15
69624;BME280;56843;52.020;5.670;2023-02-10T05:12:30;103409.84;;;8.75;66.01
69624;BME280;56843;52.020;5.670;2023-02-10T05:14:00;103405.34;;;8.76;66.23
69624;BME280;56843;52.020;5.670;2023-02-10T05:15:31;103404.53;;;8.75;66.05
69624;BME280;56843;52.020;5.670;2023-02-10T05:17:01;103394.69;;;8.76;65.93
69624;BME280;56843;52.020;5.670;2023-02-10T05:18:32;103390.41;;;8.75;66.13
69624;BME280;56843;52.020;5.670;2023-02-10T05:20:04;103390.41;;;8.75;66.06
69624;BME280;56843;52.020;5.670;2023-02-10T05:21:35;103401.31;;;8.73;66.19
69624;BME280;56843;52.020;5.670;2023-02-10T05:23:05;103406.63;;;8.73;66.01
69624;BME280;56843;52.020;5.670;2023-02-10T05:24:36;103404.78;;;8.74;66.06
69624;BME280;56843;52.020;5.670;2023-02-10T05:26:07;103406.63;;;8.73;66.16
69624;BME280;56843;52.020;5.670;2023-02-10T05:27:37;103399.94;;;8.71;66.42
69624;BME280;56843;52.020;5.670;2023-02-10T05:29:08;103406.06;;;8.71;66.10
69624;BME280;56843;52.020;5.670;2023-02-10T05:30:38;103405.00;;;8.72;66.19
69624;BME280;56843;52.020;5.670;2023-02-10T05:32:09;103411.16;;;8.73;66.00
69624;BME280;56843;52.020;5.670;2023-02-10T05:33:39;103400.50;;;8.73;66.15
69624;BME280;56843;52.020;5.670;2023-02-10T05:35:10;103405.81;;;8.73;66.09
69624;BME280;56843;52.020;5.670;2023-02-10T05:36:40;103408.50;;;8.73;66.09
69624;BME280;56843;52.020;5.670;2023-02-10T05:38:13;103406.63;;;8.73;66.07
69624;BME280;56843;52.020;5.670;2023-02-10T05:39:43;103415.44;;;8.74;66.09
69624;BME280;56843;52.020;5.670;2023-02-10T05:41:14;103419.97;;;8.73;66.08
69624;BME280;56843;52.020;5.670;2023-02-10T05:42:44;103416.47;;;8.73;66.16
69624;BME280;56843;52.020;5.670;2023-02-10T05:44:15;103413.81;;;8.73;66.14
69624;BME280;56843;52.020;5.670;2023-02-10T05:45:46;103415.44;;;8.74;66.27
69624;BME280;56843;52.020;5.670;2023-02-10T05:47:16;103419.69;;;8.75;66.34
69624;BME280;56843;52.020;5.670;2023-02-10T05:48:47;103414.63;;;8.73;66.32
69624;BME280;56843;52.020;5.670;2023-02-10T05:50:18;103411.97;;;8.73;66.14
69624;BME280;56843;52.020;5.670;2023-02-10T05:51:49;103419.97;;;8.73;66.10
69624;BME280;56843;52.020;5.670;2023-02-10T05:53:19;103424.22;;;8.74;66.16
69624;BME280;56843;52.020;5.670;2023-02-10T05:54:50;103422.38;;;8.75;66.12
69624;BME280;56843;52.020;5.670;2023-02-10T05:56:20;103425.03;;;8.75;66.16
69624;BME280;56843;52.020;5.670;2023-02-10T05:57:51;103414.38;;;8.75;66.04
69624;BME280;56843;52.020;5.670;2023-02-10T05:59:22;103414.38;;;8.75;66.33
69624;BME280;56843;52.020;5.670;2023-02-10T06:00:52;103422.13;;;8.76;66.15
69624;BME280;56843;52.020;5.670;2023-02-10T06:02:23;103414.38;;;8.75;66.14
69624;BME280;56843;52.020;5.670;2023-02-10T06:03:54;103415.19;;;8.75;66.26
69624;BME280;56843;52.020;5.670;2023-02-10T06:05:24;103418.66;;;8.76;66.05
69624;BME280;56843;52.020;5.670;2023-02-10T06:06:55;103417.03;;;8.75;66.09
69624;BME280;56843;52.020;5.670;2023-02-10T06:08:26;103413.81;;;8.73;66.10
69624;BME280;56843;52.020;5.670;2023-02-10T06:09:56;103410.13;;;8.74;65.99
69624;BME280;56843;52.020;5.670;2023-02-10T06:11:27;103408.50;;;8.73;66.14
69624;BME280;56843;52.020;5.670;2023-02-10T06:12:57;103412.78;;;8.74;66.17
69624;BME280;56843;52.020;5.670;2023-02-10T06:14:28;103412.78;;;8.74;66.10
69624;BME280;56843;52.020;5.670;2023-02-10T06:15:58;103400.75;;;8.71;66.17
69624;BME280;56843;52.020;5.670;2023-02-10T06:17:31;103411.97;;;8.73;66.08
69624;BME280;56843;52.020;5.670;2023-02-10T06:19:03;103402.59;;;8.71;66.11
69624;BME280;56843;52.020;5.670;2023-02-10T06:20:34;103406.34;;;8.70;66.03
69624;BME280;56843;52.020;5.670;2023-02-10T06:22:05;103403.09;;;8.68;66.06
69624;BME280;56843;52.020;5.670;2023-02-10T06:23:36;103406.81;;;8.67;65.85
69624;BME280;56843;52.020;5.670;2023-02-10T06:25:06;103408.38;;;8.63;65.93
69624;BME280;56843;52.020;5.670;2023-02-10T06:26:37;103414.72;;;8.62;65.52
69624;BME280;56843;52.020;5.670;2023-02-10T06:28:07;103414.41;;;8.58;65.51
69624;BME280;56843;52.020;5.670;2023-02-10T06:29:38;103416.25;;;8.58;65.50
69624;BME280;56843;52.020;5.670;2023-02-10T06:31:08;103417.53;;;8.55;65.31
69624;BME280;56843;52.020;5.670;2023-02-10T06:32:39;103420.19;;;8.55;65.22
69624;BME280;56843;52.020;5.670;2023-02-10T06:34:09;103415.69;;;8.56;65.05
69624;BME280;56843;52.020;5.670;2023-02-10T06:35:40;103421.50;;;8.53;64.98
69624;BME280;56843;52.020;5.670;2023-02-10T06:37:11;103422.31;;;8.53;64.99
69624;BME280;56843;52.020;5.670;2023-02-10T06:38:41;103429.47;;;8.53;64.83
69624;BME280;56843;52.020;5.670;2023-02-10T06:40:12;103429.72;;;8.51;64.66
69624;BME280;56843;52.020;5.670;2023-02-10T06:41:42;103424.41;;;8.51;64.73
69624;BME280;56843;52.020;5.670;2023-02-10T06:43:13;103425.69;;;8.49;64.56
69624;BME280;56843;52.020;5.670;2023-02-10T06:44:43;103426.78;;;8.48;64.60
69624;BME280;56843;52.020;5.670;2023-02-10T06:46:14;103425.94;;;8.47;64.67
69624;BME280;56843;52.020;5.670;2023-02-10T06:47:45;103429.19;;;8.49;64.40
69624;BME280;56843;52.020;5.670;2023-02-10T06:49:16;103428.13;;;8.50;64.62
69624;BME280;56843;52.020;5.670;2023-02-10T06:50:47;103431.09;;;8.54;64.89
69624;BME280;56843;52.020;5.670;2023-02-10T06:52:17;103429.31;;;8.59;64.74
69624;BME280;56843;52.020;5.670;2023-02-10T06:53:48;103433.47;;;8.67;64.53
69624;BME280;56843;52.020;5.670;2023-02-10T06:55:18;103438.91;;;8.77;64.42
69624;BME280;56843;52.020;5.670;2023-02-10T06:56:49;103438.72;;;8.83;64.17
69624;BME280;56843;52.020;5.670;2023-02-10T06:58:20;103434.28;;;8.89;64.03
69624;BME280;56843;52.020;5.670;2023-02-10T06:59:50;103438.38;;;8.97;63.86
69624;BME280;56843;52.020;5.670;2023-02-10T07:01:23;103433.91;;;9.02;63.78
69624;BME280;56843;52.020;5.670;2023-02-10T07:02:53;103431.31;;;9.07;63.63
69624;BME280;56843;52.020;5.670;2023-02-10T07:04:24;103437.50;;;9.13;63.57
69624;BME280;56843;52.020;5.670;2023-02-10T07:05:54;103434.91;;;9.18;63.39
69624;BME280;56843;52.020;5.670;2023-02-10T07:07:25;103444.28;;;9.20;63.22
69624;BME280;56843;52.020;5.670;2023-02-10T07:08:56;103444.31;;;9.25;63.16
69624;BME280;56843;52.020;5.670;2023-02-10T07:10:26;103438.50;;;9.28;62.89
69624;BME280;56843;52.020;5.670;2023-02-10T07:11:58;103447.59;;;9.32;62.97
69624;BME280;56843;52.020;5.670;2023-02-10T07:13:28;103440.16;;;9.34;62.92
69624;BME280;56843;52.020;5.670;2023-02-10T07:14:59;103442.06;;;9.39;62.83
69624;BME280;56843;52.020;5.670;2023-02-10T07:16:29;103443.44;;;9.41;62.68
69624;BME280;56843;52.020;5.670;2023-02-10T07:18:00;103441.09;;;9.45;62.73
69624;BME280;56843;52.020;5.670;2023-02-10T07:19:31;103442.44;;;9.47;62.69
69624;BME280;56843;52.020;5.670;2023-02-10T07:21:02;103440.09;;;9.51;62.53
69624;BME280;56843;52.020;5.670;2023-02-10T07:22:32;103434.50;;;9.52;62.60
69624;BME280;56843;52.020;5.670;2023-02-10T07:24:04;103439.34;;;9.55;62.50
69624;BME280;56843;52.020;5.670;2023-02-10T07:25:35;103432.16;;;9.56;62.48
69624;BME280;56843;52.020;5.670;2023-02-10T07:27:05;103432.44;;;9.59;62.42
69624;BME280;56843;52.020;5.670;2023-02-10T07:28:36;103423.38;;;9.60;62.28
69624;BME280;56843;52.020;5.670;2023-02-10T07:30:07;103431.94;;;9.63;62.28
69624;BME280;56843;52.020;5.670;2023-02-10T07:31:38;103432.50;;;9.65;62.25
69624;BME280;56843;52.020;5.670;2023-02-10T07:33:08;103433.84;;;9.67;62.33
69624;BME280;56843;52.020;5.670;2023-02-10T07:34:39;103440.78;;;9.68;62.04
69624;BME280;56843;52.020;5.670;2023-02-10T07:36:10;103434.16;;;9.71;62.25
69624;BME280;56843;52.020;5.670;2023-02-10T07:37:41;103437.38;;;9.73;62.06
69624;BME280;56843;52.020;5.670;2023-02-10T07:39:11;103432.84;;;9.73;62.07
69624;BME280;56843;52.020;5.670;2023-02-10T07:40:42;103439.00;;;9.74;61.90
69624;BME280;56843;52.020;5.670;2023-02-10T07:42:12;103442.22;;;9.76;62.04
69624;BME280;56843;52.020;5.670;2023-02-10T07:44:03;103447.56;;;9.76;61.99
69624;BME280;56843;52.020;5.670;2023-02-10T07:45:33;103447.03;;;9.79;61.92
69624;BME280;56843;52.020;5.670;2023-02-10T07:47:04;103451.31;;;9.80;61.79
69624;BME280;56843;52.020;5.670;2023-02-10T07:48:34;103457.22;;;9.82;61.72
69624;BME280;56843;52.020;5.670;2023-02-10T07:50:05;103461.72;;;9.81;61.71
69624;BME280;56843;52.020;5.670;2023-02-10T07:51:35;103469.50;;;9.83;61.63
69624;BME280;56843;52.020;5.670;2023-02-10T07:53:06;103466.56;;;9.84;61.52
69624;BME280;56843;52.020;5.670;2023-02-10T07:54:36;103466.56;;;9.84;61.71
69624;BME280;56843;52.020;5.670;2023-02-10T07:56:07;103473.50;;;9.85;61.66
69624;BME280;56843;52.020;5.670;2023-02-10T07:57:37;103474.88;;;9.88;61.59
69624;BME280;56843;52.020;5.670;2023-02-10T07:59:09;103474.06;;;9.87;61.58
69624;BME280;56843;52.020;5.670;2023-02-10T08:00:39;103471.38;;;9.87;61.54
69624;BME280;56843;52.020;5.670;2023-02-10T08:02:10;103474.63;;;9.89;61.52
69624;BME280;56843;52.020;5.670;2023-02-10T08:03:41;103487.72;;;9.91;61.34
69624;BME280;56843;52.020;5.670;2023-02-10T08:05:12;103486.91;;;9.90;61.18
69624;BME280;56843;52.020;5.670;2023-02-10T08:06:42;103490.41;;;9.91;61.25
69624;BME280;56843;52.020;5.670;2023-02-10T08:08:13;103493.88;;;9.91;61.29
69624;BME280;56843;52.020;5.670;2023-02-10T08:09:43;103495.47;;;9.92;61.46
69624;BME280;56843;52.020;5.670;2023-02-10T08:11:15;103505.91;;;9.94;61.23
69624;BME280;56843;52.020;5.670;2023-02-10T08:12:46;103498.69;;;9.94;61.26
69624;BME280;56843;52.020;5.670;2023-02-10T08:14:16;103505.66;;;9.95;61.06
69624;BME280;56843;52.020;5.670;2023-02-10T08:15:47;103506.47;;;9.96;61.01
69624;BME280;56843;52.020;5.670;2023-02-10T08:17:17;103506.22;;;9.97;61.18
69624;BME280;56843;52.020;5.670;2023-02-10T08:18:48;103507.03;;;9.98;60.88
69624;BME280;56843;52.020;5.670;2023-02-10T08:20:18;103497.38;;;9.97;60.97
69624;BME280;56843;52.020;5.670;2023-02-10T08:21:49;103504.34;;;9.98;60.88
69624;BME280;56843;52.020;5.670;2023-02-10T08:23:19;103500.59;;;9.99;60.86
69624;BME280;56843;52.020;5.670;2023-02-10T08:24:50;103501.41;;;9.99;60.92
69624;BME280;56843;52.020;5.670;2023-02-10T08:26:21;103492.59;;;9.99;60.79
69624;BME280;56843;52.020;5.670;2023-02-10T08:27:53;103497.72;;;10.00;60.76
69624;BME280;56843;52.020;5.670;2023-02-10T08:29:23;103491.28;;;10.01;60.71
69624;BME280;56843;52.020;5.670;2023-02-10T08:30:58;103492.91;;;10.02;60.85
69624;BME280;56843;52.020;5.670;2023-02-10T08:32:29;103488.88;;;10.00;60.68